Time;durP1;ratioP1;P1;durP2;ratioP2;P2;SDS_P1;SDS_P2;PMS_P1;PMS_P2;Temp;Humidity;BMP_temperature;BMP_pressure;BME280_temperature;BME280_humidity;BME280_pressure;Samples;Min_cycle;Max_cycle;Signal;HPM_P1;HPM_P2
2024/04/12 00:01:11;;;;;;;0.82;0.82;;;12.70;99.90;;;;;;5485398;26;20022;-76
2024/04/12 00:03:39;;;;;;;0.30;0.30;;;12.70;99.90;;;;;;5486086;26;20026;-76
2024/04/12 00:06:15;;;;;;;1.00;1.00;;;12.60;99.90;;;;;;5484011;26;20471;-76
2024/04/12 00:08:46;;;;;;;0.90;0.90;;;12.70;99.90;;;;;;5484814;26;20022;-75
2024/04/12 00:11:18;;;;;;;2.65;1.75;;;12.60;99.90;;;;;;5486788;26;20023;-76
2024/04/12 00:13:52;;;;;;;0.47;0.47;;;12.60;99.90;;;;;;5485980;26;20344;-75
2024/04/12 00:16:26;;;;;;;2.53;1.65;;;12.60;99.90;;;;;;5482514;26;20030;-75
2024/04/12 00:19:12;;;;;;;1.00;1.00;;;12.60;99.90;;;;;;5481339;26;20466;-79
2024/04/12 00:21:46;;;;;;;2.60;1.23;;;12.60;99.90;;;;;;5485545;26;20045;-78
2024/04/12 00:24:15;;;;;;;1.08;1.08;;;12.60;99.90;;;;;;5488944;26;20030;-78
2024/04/12 00:26:45;;;;;;;2.00;1.90;;;12.70;99.90;;;;;;5491406;26;20022;-78
2024/04/12 00:29:25;;;;;;;0.50;0.50;;;12.70;99.90;;;;;;5485277;26;20488;-80
2024/04/12 00:32:03;;;;;;;0.93;0.93;;;12.70;99.90;;;;;;5491841;26;20033;-80
2024/04/12 00:34:37;;;;;;;1.63;1.52;;;12.70;99.90;;;;;;5494159;26;20376;-79
2024/04/12 00:37:08;;;;;;;0.60;0.60;;;12.70;99.90;;;;;;5486340;26;20026;-80
2024/04/12 00:39:38;;;;;;;0.80;0.80;;;12.70;99.90;;;;;;5489079;26;20468;-80
2024/04/12 00:42:10;;;;;;;0.85;0.85;;;12.70;99.90;;;;;;5488260;26;20022;-80
2024/04/12 00:44:39;;;;;;;0.70;0.70;;;12.70;99.90;;;;;;5484326;26;20574;-80
2024/04/12 00:47:15;;;;;;;0.50;0.50;;;12.70;99.90;;;;;;5486162;26;20038;-80
2024/04/12 00:49:50;;;;;;;1.17;1.10;;;12.70;99.90;;;;;;5484727;26;20030;-80
2024/04/12 00:52:26;;;;;;;0.77;0.77;;;12.80;99.90;;;;;;5474984;26;20030;-80
2024/04/12 00:55:01;;;;;;;0.85;0.80;;;12.70;99.90;;;;;;5483862;26;19998;-81
2024/04/12 00:57:28;;;;;;;0.55;0.55;;;12.70;99.90;;;;;;5480937;26;20380;-79
2024/04/12 00:59:55;;;;;;;5.50;1.70;;;12.70;99.90;;;;;;5483381;26;20155;-79
2024/04/12 01:02:22;;;;;;;1.38;1.02;;;12.80;99.90;;;;;;5485978;26;20026;-79
2024/04/12 01:04:50;;;;;;;1.80;1.70;;;12.70;99.90;;;;;;5485666;26;20034;-80
2024/04/12 01:07:18;;;;;;;3.30;3.10;;;12.70;99.90;;;;;;5483749;26;20038;-79
2024/04/12 01:09:45;;;;;;;1.85;1.73;;;12.70;99.90;;;;;;5477232;26;20056;-80
2024/04/12 01:12:17;;;;;;;1.88;1.75;;;12.70;99.90;;;;;;5485367;26;20104;-79
2024/04/12 01:14:44;;;;;;;2.42;2.33;;;12.70;99.90;;;;;;5481449;26;20034;-80
2024/04/12 01:17:11;;;;;;;1.75;1.10;;;12.80;99.90;;;;;;5485758;26;20021;-79
2024/04/12 01:19:38;;;;;;;2.88;1.00;;;12.80;99.90;;;;;;5444001;26;20023;-79
2024/04/12 01:22:05;;;;;;;2.28;2.17;;;12.80;99.90;;;;;;5485385;26;20034;-79
2024/04/12 01:24:33;;;;;;;1.27;1.27;;;12.80;99.90;;;;;;5514334;25;20022;-79
2024/04/12 01:27:06;;;;;;;1.08;0.80;;;12.80;99.90;;;;;;5477686;26;20616;-78
2024/04/12 01:29:33;;;;;;;2.67;1.10;;;12.80;99.90;;;;;;5483520;26;20472;-79
2024/04/12 01:32:03;;;;;;;0.95;0.93;;;12.70;99.90;;;;;;5473249;26;20468;-79
2024/04/12 01:34:31;;;;;;;1.92;1.83;;;12.80;99.90;;;;;;5485730;26;20038;-79
2024/04/12 01:37:03;;;;;;;1.70;1.35;;;12.80;99.90;;;;;;5482420;26;20472;-79
2024/04/12 01:39:30;;;;;;;0.75;0.75;;;12.80;99.90;;;;;;5485787;26;20026;-81
2024/04/12 01:42:04;;;;;;;1.25;1.20;;;12.80;99.90;;;;;;5484573;26;20026;-80
2024/04/12 01:44:31;;;;;;;1.90;0.90;;;12.80;99.90;;;;;;5485519;26;20037;-79
2024/04/12 01:47:00;;;;;;;1.65;1.55;;;12.80;99.90;;;;;;5482150;26;20365;-79
2024/04/12 01:49:33;;;;;;;0.75;0.73;;;12.80;99.90;;;;;;5485481;26;20034;-79
2024/04/12 01:52:01;;;;;;;1.02;1.02;;;12.80;99.90;;;;;;5482488;26;20398;-79
2024/04/12 01:54:32;;;;;;;0.75;0.75;;;12.80;99.90;;;;;;5484525;26;20384;-79
2024/04/12 01:57:03;;;;;;;7.72;1.63;;;12.80;99.90;;;;;;5484100;26;20486;-79
2024/04/12 01:59:31;;;;;;;1.85;1.55;;;12.90;99.90;;;;;;5484775;26;20026;-78
2024/04/12 02:02:00;;;;;;;5.45;2.20;;;12.90;99.90;;;;;;5479436;26;20824;-79
2024/04/12 02:04:34;;;;;;;2.60;1.70;;;12.90;99.90;;;;;;5483627;26;20030;-80
2024/04/12 02:07:01;;;;;;;1.30;1.25;;;12.90;99.90;;;;;;5477294;26;20030;-80
2024/04/12 02:09:28;;;;;;;1.45;0.75;;;12.90;99.90;;;;;;5483081;26;20013;-80
2024/04/12 02:11:57;;;;;;;0.85;0.55;;;12.90;99.90;;;;;;5479777;26;20027;-80
2024/04/12 02:14:23;;;;;;;0.65;0.65;;;12.90;99.90;;;;;;5484817;26;20018;-80
2024/04/12 02:16:50;;;;;;;1.70;1.60;;;12.90;99.90;;;;;;5483911;26;20476;-79
2024/04/12 02:19:21;;;;;;;1.88;1.75;;;12.80;99.90;;;;;;5480232;26;20028;-78
2024/04/12 02:21:48;;;;;;;3.60;2.15;;;12.90;99.90;;;;;;5479209;26;20033;-80
2024/04/12 02:24:18;;;;;;;1.13;1.13;;;12.90;99.90;;;;;;5481227;26;20034;-79
2024/04/12 02:26:49;;;;;;;1.77;1.67;;;12.80;99.90;;;;;;5484249;26;20034;-79
2024/04/12 02:29:15;;;;;;;0.47;0.47;;;12.80;99.90;;;;;;5478294;26;20037;-79
2024/04/12 02:31:43;;;;;;;2.08;1.58;;;12.90;99.90;;;;;;5483994;26;20049;-79
2024/04/12 02:34:11;;;;;;;4.47;2.88;;;12.90;99.90;;;;;;5482317;26;20033;-79
2024/04/12 02:36:38;;;;;;;1.80;1.70;;;12.90;99.90;;;;;;5482285;26;20034;-78
2024/04/12 02:39:08;;;;;;;1.50;1.40;;;12.90;99.90;;;;;;5477773;26;20026;-78
2024/04/12 02:41:37;;;;;;;1.85;1.20;;;12.90;99.90;;;;;;5484103;26;20026;-78
2024/04/12 02:44:06;;;;;;;0.77;0.77;;;12.90;99.90;;;;;;5480348;26;20149;-79
2024/04/12 02:46:33;;;;;;;1.65;0.82;;;12.90;99.90;;;;;;5484167;26;20041;-78
2024/04/12 02:49:06;;;;;;;1.00;0.95;;;12.90;99.90;;;;;;5482301;26;20468;-78
2024/04/12 02:51:33;;;;;;;1.95;1.15;;;12.80;99.90;;;;;;5484543;26;20184;-79
2024/04/12 02:54:00;;;;;;;0.68;0.68;;;12.90;99.90;;;;;;5475067;26;20402;-80
2024/04/12 02:56:27;;;;;;;3.50;1.08;;;12.90;99.90;;;;;;5482599;26;20025;-81
2024/04/12 02:58:54;;;;;;;0.75;0.60;;;12.90;99.90;;;;;;5471049;26;20027;-82
2024/04/12 03:01:23;;;;;;;2.33;2.08;;;13.00;99.90;;;;;;5484338;26;20034;-79
2024/04/12 03:04:00;;;;;;;4.18;1.55;;;13.00;99.90;;;;;;5474590;26;20039;-79
2024/04/12 03:06:31;;;;;;;;;;;13.00;99.90;;;;;;5477281;26;20738;-79
2024/04/12 03:09:02;;;;;;;1.05;1.05;;;13.00;99.90;;;;;;5483251;26;19948;-79
2024/04/12 03:11:33;;;;;;;2.40;1.65;;;13.00;99.90;;;;;;5483885;26;20022;-78
2024/04/12 03:14:08;;;;;;;2.20;1.60;;;13.00;99.90;;;;;;5481724;26;20022;-78
2024/04/12 03:16:40;;;;;;;2.08;1.85;;;13.00;99.90;;;;;;5484160;26;20487;-79
2024/04/12 03:19:18;;;;;;;2.13;1.35;;;13.00;99.90;;;;;;5483545;26;20022;-79
2024/04/12 03:21:50;;;;;;;1.15;0.90;;;13.00;99.90;;;;;;5485779;26;20022;-78
2024/04/12 03:24:17;;;;;;;0.70;0.70;;;12.90;99.90;;;;;;5465119;26;20377;-78
2024/04/12 03:26:45;;;;;;;1.67;1.05;;;12.90;99.90;;;;;;5476035;26;20058;-80
2024/04/12 03:29:12;;;;;;;0.82;0.82;;;12.90;99.90;;;;;;5477828;26;20030;-79
2024/04/12 03:31:39;;;;;;;4.38;2.35;;;12.90;99.90;;;;;;5484261;26;20042;-79
2024/04/12 03:34:06;;;;;;;1.75;1.65;;;12.90;99.90;;;;;;5483707;26;20026;-79
2024/04/12 03:42:08;;;;;;;1.65;1.60;;;12.80;99.90;;;;;;5481644;26;20026;-80
2024/04/12 03:44:36;;;;;;;1.10;1.10;;;12.90;99.90;;;;;;5481320;26;20030;-78
2024/04/12 03:47:10;;;;;;;1.58;1.45;;;12.80;99.90;;;;;;5481667;26;20038;-80
2024/04/12 03:49:39;;;;;;;1.05;0.85;;;12.90;99.90;;;;;;5480720;26;20038;-79
2024/04/12 03:52:13;;;;;;;0.47;0.47;;;12.80;99.90;;;;;;5483884;26;20392;-79
2024/04/12 03:54:42;;;;;;;1.98;1.85;;;12.80;99.90;;;;;;5483220;26;20034;-77
2024/04/12 03:57:09;;;;;;;2.17;1.90;;;12.80;99.90;;;;;;5483200;26;20046;-78
2024/04/12 03:59:38;;;;;;;3.30;0.70;;;12.80;99.90;;;;;;5482906;26;20034;-79
2024/04/12 04:02:08;;;;;;;1.45;1.40;;;12.80;99.90;;;;;;5450674;26;20022;-77
2024/04/12 04:04:37;;;;;;;2.50;0.95;;;12.80;99.90;;;;;;5481627;26;20035;-77
2024/04/12 04:07:05;;;;;;;0.68;0.68;;;12.80;99.90;;;;;;5434000;26;20013;-77
2024/04/12 04:09:33;;;;;;;0.52;0.52;;;12.80;99.90;;;;;;5482048;26;20491;-77
2024/04/12 04:12:00;;;;;;;2.63;1.35;;;12.80;99.90;;;;;;5479682;26;20488;-77
2024/04/12 04:14:27;;;;;;;1.00;0.75;;;12.80;99.90;;;;;;5482362;26;20062;-79
2024/04/12 04:16:56;;;;;;;1.35;1.23;;;12.80;99.90;;;;;;5474829;26;20095;-78
2024/04/12 04:19:33;;;;;;;2.28;1.70;;;12.80;99.90;;;;;;5450073;26;20347;-78
2024/04/12 04:22:21;;;;;;;3.83;1.15;;;12.80;99.90;;;;;;5481127;26;20023;-76
2024/04/12 04:24:52;;;;;;;4.63;1.63;;;12.90;99.90;;;;;;5479117;26;20031;-78
2024/04/12 04:27:21;;;;;;;1.75;1.65;;;12.80;99.90;;;;;;5483551;26;20297;-77
2024/04/12 04:29:51;;;;;;;2.00;1.40;;;12.90;99.90;;;;;;5482696;26;20037;-78
2024/04/12 04:32:21;;;;;;;1.30;1.00;;;12.80;99.90;;;;;;5477288;26;20042;-78
2024/04/12 04:34:54;;;;;;;0.73;0.73;;;12.80;99.90;;;;;;5481862;26;19999;-77
2024/04/12 04:37:22;;;;;;;2.63;2.42;;;12.80;99.90;;;;;;5452763;26;20373;-77
2024/04/12 04:39:49;;;;;;;0.82;0.82;;;12.80;99.90;;;;;;5485408;26;20108;-78
2024/04/12 04:42:16;;;;;;;2.45;2.25;;;12.80;99.90;;;;;;5484662;26;20045;-79
2024/04/12 04:44:44;;;;;;;1.75;1.65;;;12.80;99.90;;;;;;5484583;26;20030;-80
2024/04/12 04:47:10;;;;;;;1.35;1.25;;;12.80;99.90;;;;;;5479395;26;20026;-78
2024/04/12 04:49:38;;;;;;;1.85;1.50;;;12.70;99.90;;;;;;5481526;26;20037;-78
2024/04/12 04:52:08;;;;;;;1.58;1.48;;;12.70;99.90;;;;;;5482746;26;20483;-78
2024/04/12 04:54:39;;;;;;;1.75;1.45;;;12.70;99.90;;;;;;5480960;26;20028;-77
2024/04/12 04:57:06;;;;;;;0.30;0.30;;;12.70;99.90;;;;;;5480979;26;20031;-78
2024/04/12 04:59:33;;;;;;;2.03;0.80;;;12.70;99.90;;;;;;5452625;26;20471;-78
2024/04/12 05:02:01;;;;;;;0.77;0.77;;;12.70;99.90;;;;;;5486268;26;20030;-77
2024/04/12 05:04:31;;;;;;;3.95;1.50;;;12.70;99.90;;;;;;5484332;26;20026;-78
2024/04/12 05:06:59;;;;;;;1.85;1.75;;;12.70;99.90;;;;;;5485853;26;20034;-77
2024/04/12 05:09:29;;;;;;;0.57;0.57;;;12.70;99.90;;;;;;5484889;26;20057;-79
2024/04/12 05:11:55;;;;;;;0.50;0.50;;;12.80;99.90;;;;;;5481268;26;20006;-78
2024/04/12 05:17:15;;;;;;;1.65;1.05;;;12.80;99.90;;;;;;5482259;26;20006;-77
2024/04/12 05:19:43;;;;;;;0.50;0.50;;;12.80;99.90;;;;;;5485072;26;20034;-79
2024/04/12 05:22:11;;;;;;;2.13;0.77;;;12.80;99.90;;;;;;5484043;26;20022;-77
2024/04/12 05:24:39;;;;;;;0.73;0.50;;;12.90;99.90;;;;;;5485348;26;20043;-77
2024/04/12 05:27:07;;;;;;;1.33;0.70;;;12.90;99.90;;;;;;5452773;26;20034;-77
2024/04/12 05:29:34;;;;;;;1.38;1.27;;;13.00;99.90;;;;;;5485388;26;20018;-77
2024/04/12 05:32:01;;;;;;;0.73;0.73;;;13.00;99.90;;;;;;5489791;26;20030;-78
2024/04/12 05:34:28;;;;;;;0.52;0.52;;;13.00;99.90;;;;;;5481471;26;20338;-78
2024/04/12 05:37:02;;;;;;;0.40;0.40;;;13.00;99.90;;;;;;5482440;26;21579;-81
2024/04/12 05:39:36;;;;;;;1.42;1.33;;;13.00;99.90;;;;;;5458479;26;20006;-79
2024/04/12 05:42:06;;;;;;;1.60;1.50;;;13.00;99.90;;;;;;5470273;26;20038;-79
2024/04/12 05:44:34;;;;;;;0.73;0.73;;;13.00;99.90;;;;;;5473830;26;20023;-78
2024/04/12 05:47:06;;;;;;;1.30;0.63;;;13.00;99.90;;;;;;5469838;26;20375;-78
2024/04/12 05:49:33;;;;;;;1.42;1.33;;;13.00;99.90;;;;;;5472952;26;20020;-81
2024/04/12 05:52:02;;;;;;;0.85;0.85;;;13.00;99.90;;;;;;5469985;26;20006;-79
2024/04/12 05:54:39;;;;;;;3.13;0.50;;;13.10;99.90;;;;;;5461781;26;20474;-79
2024/04/12 05:57:07;;;;;;;1.10;1.05;;;13.10;99.90;;;;;;5476266;26;20043;-80
2024/04/12 05:59:34;;;;;;;0.63;0.63;;;13.10;99.90;;;;;;5466223;26;20009;-78
2024/04/12 06:02:05;;;;;;;0.82;0.82;;;13.10;99.90;;;;;;5464831;26;19998;-79
2024/04/12 06:04:32;;;;;;;0.77;0.77;;;13.10;99.90;;;;;;5468122;26;20030;-80
2024/04/12 06:07:07;;;;;;;1.40;1.30;;;13.10;99.90;;;;;;5473742;26;20023;-80
2024/04/12 06:09:34;;;;;;;1.45;1.35;;;13.10;99.90;;;;;;5478336;26;20030;-79
2024/04/12 06:12:05;;;;;;;0.38;0.38;;;13.10;99.90;;;;;;5471593;26;20049;-78
2024/04/12 06:14:38;;;;;;;0.40;0.40;;;13.10;99.90;;;;;;5469218;26;20038;-78
2024/04/12 06:17:11;;;;;;;1.00;0.80;;;13.10;99.90;;;;;;5469288;26;20012;-78
2024/04/12 06:19:38;;;;;;;0.90;0.90;;;13.10;99.90;;;;;;5468014;26;21640;-79
2024/04/12 06:22:13;;;;;;;0.95;0.95;;;13.10;99.90;;;;;;5460279;26;20027;-78
2024/04/12 06:24:48;;;;;;;0.52;0.52;;;13.10;99.90;;;;;;5469179;26;20030;-77
2024/04/12 06:27:29;;;;;;;0.85;0.75;;;13.10;99.90;;;;;;5471642;26;20386;-79
2024/04/12 06:30:00;;;;;;;1.35;1.25;;;13.10;99.90;;;;;;5475578;26;20377;-79
2024/04/12 06:32:27;;;;;;;1.73;1.08;;;13.10;99.90;;;;;;5478141;26;20363;-80
2024/04/12 06:34:55;;;;;;;1.05;0.98;;;13.20;99.90;;;;;;5477568;26;20034;-80
2024/04/12 06:37:21;;;;;;;0.43;0.43;;;13.10;99.90;;;;;;5471908;26;20104;-79
2024/04/12 06:39:49;;;;;;;1.25;1.10;;;13.10;99.90;;;;;;5466521;26;20102;-80
2024/04/12 06:42:17;;;;;;;2.45;2.25;;;13.20;99.90;;;;;;5471190;26;20482;-79
2024/04/12 06:44:50;;;;;;;0.98;0.98;;;13.10;99.90;;;;;;5447486;26;20006;-79
2024/04/12 06:47:18;;;;;;;2.22;1.02;;;13.20;99.90;;;;;;5475358;26;20045;-80
2024/04/12 06:49:45;;;;;;;0.63;0.63;;;13.10;99.90;;;;;;5472993;26;20026;-79
2024/04/12 06:52:20;;;;;;;0.90;0.90;;;13.20;99.90;;;;;;5461738;26;20039;-79
2024/04/12 06:54:47;;;;;;;1.25;1.25;;;13.30;99.90;;;;;;5467575;26;20462;-79
2024/04/12 06:57:17;;;;;;;0.75;0.75;;;13.30;99.90;;;;;;5466757;26;19999;-80
2024/04/12 06:59:53;;;;;;;0.68;0.68;;;13.40;99.90;;;;;;5467690;26;20038;-79
2024/04/12 07:02:24;;;;;;;0.77;0.60;;;13.40;99.90;;;;;;5477314;26;20030;-80
2024/04/12 07:04:54;;;;;;;0.80;0.63;;;13.40;99.90;;;;;;5479655;26;20031;-80
2024/04/12 07:07:23;;;;;;;0.50;0.50;;;13.40;99.90;;;;;;5476637;26;20026;-80
2024/04/12 07:09:57;;;;;;;0.88;0.88;;;13.50;99.90;;;;;;5475130;26;20041;-81
2024/04/12 07:12:31;;;;;;;0.90;0.90;;;13.60;99.90;;;;;;5464724;26;20037;-80
2024/04/12 07:14:58;;;;;;;0.60;0.60;;;13.70;99.90;;;;;;5474940;26;20386;-79
2024/04/12 07:17:26;;;;;;;3.45;1.05;;;13.80;99.90;;;;;;5469832;26;20009;-80
2024/04/12 07:19:54;;;;;;;1.77;1.67;;;13.80;99.90;;;;;;5474352;26;20006;-80
2024/04/12 07:22:22;;;;;;;3.03;2.25;;;13.90;99.90;;;;;;5469398;26;20009;-80
2024/04/12 07:24:50;;;;;;;2.15;2.05;;;14.00;99.90;;;;;;5467714;26;19999;-81
2024/04/12 07:27:28;;;;;;;1.15;1.15;;;14.10;99.90;;;;;;5462091;26;20034;-80
2024/04/12 07:29:55;;;;;;;0.88;0.63;;;14.20;99.90;;;;;;5478992;26;20519;-81
2024/04/12 07:32:23;;;;;;;0.73;0.50;;;14.30;99.90;;;;;;5470755;26;20027;-81
2024/04/12 07:34:51;;;;;;;2.50;1.02;;;14.40;99.90;;;;;;5461928;26;20037;-80
2024/04/12 07:37:31;;;;;;;0.47;0.38;;;14.50;99.90;;;;;;5456232;26;20014;-81
2024/04/12 07:40:18;;;;;;;1.05;0.93;;;14.50;99.90;;;;;;5448936;26;20488;-81
2024/04/12 07:42:46;;;;;;;;;;;14.60;99.90;;;;;;5467454;26;20046;-81
2024/04/12 07:45:17;;;;;;;0.98;0.90;;;14.80;99.90;;;;;;5478542;26;19952;-81
2024/04/12 07:47:53;;;;;;;0.75;0.60;;;14.80;99.90;;;;;;5478565;26;20022;-81
2024/04/12 07:50:31;;;;;;;1.92;1.40;;;14.90;99.90;;;;;;5480347;26;20034;-82
2024/04/12 07:53:21;;;;;;;2.05;1.95;;;14.90;99.90;;;;;;5471651;26;20030;-81
2024/04/12 07:56:00;;;;;;;2.78;2.15;;;14.90;99.90;;;;;;5483040;26;20026;-81
2024/04/12 07:58:28;;;;;;;1.02;1.00;;;14.90;99.90;;;;;;5461293;26;20055;-80
2024/04/12 08:01:15;;;;;;;2.75;2.58;;;14.90;99.90;;;;;;5473694;26;20031;-81
2024/04/12 08:03:43;;;;;;;1.00;0.60;;;15.00;99.90;;;;;;5479928;26;20023;-80
2024/04/12 08:06:19;;;;;;;2.05;1.95;;;15.10;99.90;;;;;;5462655;26;20479;-81
2024/04/12 08:08:47;;;;;;;1.85;1.60;;;15.20;99.90;;;;;;5474287;26;20046;-81
2024/04/12 08:14:05;;;;;;;3.78;1.38;;;15.40;99.90;;;;;;5472869;26;20031;-80
2024/04/12 08:16:39;;;;;;;2.08;1.90;;;15.50;99.90;;;;;;5448932;26;20033;-80
2024/04/12 08:19:15;;;;;;;1.23;1.23;;;15.50;99.90;;;;;;5475174;26;20038;-81
2024/04/12 08:21:42;;;;;;;0.93;0.55;;;15.50;99.90;;;;;;5465373;26;20030;-81
2024/04/12 08:24:15;;;;;;;1.73;1.23;;;15.60;99.90;;;;;;5483025;26;20034;-82
2024/04/12 08:26:48;;;;;;;1.08;1.08;;;15.60;99.90;;;;;;5474410;26;20038;-80
2024/04/12 08:29:40;;;;;;;0.30;0.30;;;15.70;99.90;;;;;;5469515;26;20038;-80
2024/04/12 08:34:43;;;;;;;1.10;0.85;;;16.00;99.90;;;;;;5500322;26;20023;-80
2024/04/12 08:37:16;;;;;;;1.27;1.20;;;16.20;99.90;;;;;;5485143;26;20023;-78
2024/04/12 08:39:44;;;;;;;4.93;1.88;;;16.30;99.90;;;;;;5482534;26;20010;-80
2024/04/12 08:42:15;;;;;;;0.77;0.68;;;16.30;99.90;;;;;;5465134;26;20023;-81
2024/04/12 08:44:47;;;;;;;1.45;1.30;;;16.20;99.90;;;;;;5480316;26;20038;-81
2024/04/12 08:50:07;;;;;;;0.95;0.73;;;16.30;99.90;;;;;;5482784;26;20022;-81
2024/04/12 08:52:47;;;;;;;0.60;0.60;;;16.40;99.90;;;;;;5475196;26;20031;-81
2024/04/12 08:55:20;;;;;;;0.95;0.95;;;16.50;99.90;;;;;;5469147;26;20395;-82
2024/04/12 08:57:52;;;;;;;0.70;0.63;;;16.60;99.90;;;;;;5476858;26;20034;-81
2024/04/12 09:00:21;;;;;;;0.75;0.75;;;16.80;99.90;;;;;;5475769;26;20034;-80
2024/04/12 09:02:50;;;;;;;0.50;0.50;;;16.80;99.90;;;;;;5467953;26;20022;-80
2024/04/12 09:05:25;;;;;;;0.38;0.38;;;16.70;99.90;;;;;;5466079;26;20071;-81
2024/04/12 09:07:56;;;;;;;0.40;0.40;;;16.60;99.90;;;;;;5468608;26;20054;-81
2024/04/12 09:10:27;;;;;;;0.22;0.22;;;16.60;99.90;;;;;;5474416;26;20022;-82
2024/04/12 09:12:54;;;;;;;0.25;0.25;;;16.70;99.90;;;;;;5467761;26;20041;-81
2024/04/12 09:15:24;;;;;;;0.68;0.47;;;16.80;99.90;;;;;;5467365;26;20572;-81
2024/04/12 09:18:01;;;;;;;0.45;0.45;;;17.00;99.90;;;;;;5466224;26;20026;-81
2024/04/12 09:20:31;;;;;;;0.63;0.63;;;17.00;99.90;;;;;;5474104;26;20029;-79
2024/04/12 09:23:13;;;;;;;0.82;0.82;;;17.10;99.90;;;;;;5459099;26;20391;-80
2024/04/12 09:25:43;;;;;;;0.65;0.65;;;17.10;99.90;;;;;;5478037;26;20034;-81
2024/04/12 09:28:13;;;;;;;0.40;0.40;;;17.10;99.90;;;;;;5481674;26;20037;-80
2024/04/12 09:33:31;;;;;;;0.55;0.55;;;17.30;99.90;;;;;;5481189;26;20030;-81
2024/04/12 09:36:05;;;;;;;0.30;0.30;;;17.40;99.90;;;;;;5474017;26;20039;-82
2024/04/12 09:38:39;;;;;;;0.38;0.38;;;17.40;99.90;;;;;;5472219;26;20351;-79
2024/04/12 09:41:28;;;;;;;1.50;1.20;;;17.60;99.90;;;;;;5474579;26;20026;-79
2024/04/12 09:44:00;;;;;;;0.43;0.43;;;17.60;99.90;;;;;;5474576;26;20097;-79
2024/04/12 10:37:22;;;;;;;0.88;0.88;;;17.60;99.90;;;;;;5477472;26;20526;-79
2024/04/12 10:37:31;;;;;;;0.32;0.32;;;18.50;99.90;;;;;;5483599;26;20038;-80
2024/04/12 10:40:04;;;;;;;0.68;0.68;;;18.70;99.90;;;;;;5466085;26;20399;-78
2024/04/12 10:42:31;;;;;;;0.30;0.30;;;18.90;99.90;;;;;;5478895;26;20026;-79
2024/04/12 10:45:01;;;;;;;0.68;0.68;;;18.90;99.90;;;;;;5474724;26;20025;-79
2024/04/12 10:47:29;;;;;;;0.15;0.15;;;18.70;99.90;;;;;;5471205;26;20034;-80
2024/04/12 10:50:01;;;;;;;1.55;1.00;;;18.50;99.90;;;;;;5468342;26;20050;-75
2024/04/12 10:52:30;;;;;;;0.45;0.45;;;18.40;99.90;;;;;;5479970;26;20377;-78
2024/04/12 10:55:08;;;;;;;0.30;0.30;;;18.30;99.90;;;;;;5461641;26;20030;-78
2024/04/12 10:57:42;;;;;;;0.50;0.50;;;18.20;99.90;;;;;;5480678;26;20396;-78
2024/04/12 11:00:15;;;;;;;4.45;1.20;;;18.00;99.90;;;;;;5477110;26;20038;-79
2024/04/12 11:02:54;;;;;;;0.43;0.43;;;17.80;99.90;;;;;;5469813;26;20363;-79
2024/04/12 11:07:51;;;;;;;0.22;0.22;;;17.70;99.90;;;;;;5483881;26;20026;-79
2024/04/12 11:10:38;;;;;;;0.30;0.30;;;17.70;99.90;;;;;;5479694;26;20030;-80
2024/04/12 11:13:08;;;;;;;0.38;0.38;;;17.80;99.90;;;;;;5480583;26;20034;-78
2024/04/12 11:32:19;;;;;;;1.15;1.05;;;17.70;99.90;;;;;;5480559;26;20034;-80
2024/04/12 11:34:48;;;;;;;0.30;0.30;;;17.70;99.90;;;;;;5477754;26;20378;-80
2024/04/12 11:37:15;;;;;;;0.25;0.25;;;17.80;99.90;;;;;;5475894;26;20030;-80
2024/04/12 11:39:42;;;;;;;0.35;0.35;;;17.80;99.90;;;;;;5478361;26;20480;-78
2024/04/12 11:42:18;;;;;;;3.13;0.50;;;17.80;99.90;;;;;;5486500;26;20025;-79
2024/04/12 11:44:47;;;;;;;0.20;0.20;;;17.80;99.90;;;;;;5466262;26;20026;-79
2024/04/12 11:47:16;;;;;;;0.50;0.50;;;17.80;99.90;;;;;;5472650;26;20026;-80
2024/04/12 11:49:46;;;;;;;0.40;0.40;;;17.70;99.90;;;;;;5473527;26;20026;-80
2024/04/12 11:52:17;;;;;;;0.20;0.20;;;17.70;99.90;;;;;;5481367;26;20033;-80
2024/04/12 11:54:58;;;;;;;1.65;0.77;;;17.90;99.90;;;;;;5480460;26;20037;-79
2024/04/12 11:57:30;;;;;;;1.40;1.30;;;18.00;99.90;;;;;;5482533;26;20037;-81
2024/04/12 12:00:08;;;;;;;0.73;0.73;;;18.10;99.90;;;;;;5464545;26;20030;-80
2024/04/12 12:02:37;;;;;;;0.28;0.28;;;18.00;99.90;;;;;;5475457;26;20012;-79
2024/04/12 12:05:05;;;;;;;0.20;0.20;;;17.90;99.90;;;;;;5480481;26;20038;-80
2024/04/12 12:07:32;;;;;;;1.20;1.17;;;17.90;99.90;;;;;;5488373;26;20041;-80
2024/04/12 12:10:03;;;;;;;0.30;0.30;;;18.00;99.90;;;;;;5472370;26;20034;-81
2024/04/12 12:12:30;;;;;;;0.70;0.70;;;18.20;99.90;;;;;;5479842;26;20057;-81
2024/04/12 12:14:59;;;;;;;0.20;0.20;;;18.20;99.90;;;;;;5486229;26;20014;-79
2024/04/12 12:17:28;;;;;;;0.20;0.20;;;18.20;99.90;;;;;;5468001;26;20022;-79
2024/04/12 12:19:57;;;;;;;1.65;0.85;;;18.30;99.90;;;;;;5472918;26;20008;-80
2024/04/12 12:22:24;;;;;;;0.20;0.20;;;18.20;99.90;;;;;;5480822;26;20026;-80
2024/04/12 12:24:51;;;;;;;0.55;0.55;;;18.10;99.90;;;;;;5470171;26;20038;-81
2024/04/12 12:27:21;;;;;;;0.30;0.30;;;18.00;99.90;;;;;;5477686;26;20023;-80
2024/04/12 12:29:51;;;;;;;0.40;0.40;;;18.10;99.90;;;;;;5478790;26;20030;-80
2024/04/12 12:32:19;;;;;;;1.73;1.63;;;18.20;99.90;;;;;;5469019;26;20030;-80
2024/04/12 12:34:47;;;;;;;0.57;0.55;;;18.00;99.90;;;;;;5469468;26;20385;-80
2024/04/12 12:37:15;;;;;;;0.20;0.20;;;18.00;99.90;;;;;;5469595;26;20049;-80
2024/04/12 12:39:43;;;;;;;0.57;0.57;;;18.10;99.90;;;;;;5462041;26;20009;-80
2024/04/12 12:42:12;;;;;;;0.30;0.30;;;18.20;99.90;;;;;;5469839;26;20388;-80
2024/04/12 12:44:39;;;;;;;0.30;0.30;;;18.30;99.90;;;;;;5478397;26;20476;-80
2024/04/12 12:47:06;;;;;;;0.30;0.30;;;18.30;99.90;;;;;;5483963;26;20042;-80
2024/04/12 12:49:40;;;;;;;0.43;0.40;;;18.30;99.90;;;;;;5476512;26;20023;-79
2024/04/12 12:52:11;;;;;;;0.60;0.60;;;18.20;99.90;;;;;;5466535;26;20543;-80
2024/04/12 12:54:41;;;;;;;0.40;0.40;;;18.30;99.90;;;;;;5472373;26;20373;-79
2024/04/12 12:57:10;;;;;;;9.32;1.85;;;18.30;99.90;;;;;;5471687;26;20033;-80
2024/04/12 12:59:40;;;;;;;0.70;0.70;;;18.40;99.90;;;;;;5470080;26;20486;-80
2024/04/12 13:02:07;;;;;;;0.32;0.32;;;18.60;99.90;;;;;;5476240;26;20263;-79
2024/04/12 13:04:35;;;;;;;1.02;1.02;;;18.70;99.90;;;;;;5485376;26;20388;-80
2024/04/12 13:07:07;;;;;;;0.70;0.70;;;18.80;99.90;;;;;;5477132;26;20105;-81
2024/04/12 13:09:35;;;;;;;2.63;1.20;;;18.80;99.90;;;;;;5467082;26;20497;-80
2024/04/12 13:12:03;;;;;;;0.60;0.60;;;19.00;99.90;;;;;;5468946;26;20034;-80
2024/04/12 13:14:32;;;;;;;0.20;0.20;;;19.00;99.90;;;;;;5478322;26;20492;-79
2024/04/12 13:17:02;;;;;;;0.60;0.60;;;19.00;99.90;;;;;;5478088;26;20027;-79
2024/04/12 13:19:30;;;;;;;0.73;0.73;;;19.00;99.90;;;;;;5473485;26;20112;-78
2024/04/12 13:21:58;;;;;;;0.80;0.60;;;19.00;99.90;;;;;;5489044;26;20088;-80
2024/04/12 13:24:26;;;;;;;0.30;0.30;;;19.00;99.90;;;;;;5480775;26;20495;-80
2024/04/12 13:26:54;;;;;;;0.55;0.55;;;19.00;99.90;;;;;;5467758;26;20031;-80
2024/04/12 13:29:25;;;;;;;1.70;1.60;;;19.00;99.90;;;;;;5463811;26;20006;-79
2024/04/12 13:31:52;;;;;;;0.43;0.40;;;18.90;99.90;;;;;;5474173;26;20385;-79
2024/04/12 13:34:21;;;;;;;0.30;0.30;;;18.80;99.90;;;;;;5467374;26;20023;-79
2024/04/12 13:36:52;;;;;;;0.20;0.20;;;18.80;99.90;;;;;;5468290;26;20085;-80
2024/04/12 13:39:20;;;;;;;0.40;0.40;;;18.90;99.90;;;;;;5468478;26;20485;-80
2024/04/12 13:41:47;;;;;;;0.45;0.45;;;18.90;99.90;;;;;;5472093;26;20034;-80
2024/04/12 13:50:46;;;;;;;0.30;0.30;;;18.90;99.90;;;;;;5476033;26;20391;-79
2024/04/12 13:52:48;;;;;;;0.30;0.30;;;19.00;99.90;;;;;;5484776;26;20022;-79
2024/04/12 13:55:20;;;;;;;0.65;0.65;;;19.00;99.90;;;;;;5485176;26;20033;-80
2024/04/12 13:57:47;;;;;;;0.57;0.35;;;18.90;99.90;;;;;;5471073;26;20473;-79
2024/04/12 14:00:30;;;;;;;0.95;0.95;;;18.90;99.90;;;;;;5473493;26;20031;-79
2024/04/12 14:03:05;;;;;;;1.45;0.77;;;18.80;99.90;;;;;;5484675;26;20026;-80
2024/04/12 14:05:36;;;;;;;;;;;18.70;99.90;;;;;;5478812;26;20026;-79
2024/04/12 14:08:09;;;;;;;0.50;0.50;;;18.80;99.90;;;;;;5469275;26;20443;-79
2024/04/12 14:10:37;;;;;;;0.35;0.30;;;18.70;99.90;;;;;;5468824;26;20038;-79
2024/04/12 14:13:05;;;;;;;0.40;0.40;;;18.60;99.90;;;;;;5475889;26;20120;-79
2024/04/12 14:15:39;;;;;;;0.35;0.35;;;18.60;99.90;;;;;;5478345;26;20026;-79
2024/04/12 14:18:07;;;;;;;0.30;0.30;;;18.70;99.90;;;;;;5500142;26;20042;-78
2024/04/12 14:20:34;;;;;;;0.75;0.52;;;18.90;99.90;;;;;;5469687;26;20027;-80
2024/04/12 14:23:01;;;;;;;1.08;0.73;;;19.10;99.90;;;;;;5448237;26;20026;-80
2024/04/12 14:25:28;;;;;;;0.30;0.30;;;18.80;99.90;;;;;;5465530;26;20022;-80
2024/04/12 14:27:55;;;;;;;0.30;0.30;;;18.70;99.90;;;;;;5467300;26;20058;-79
2024/04/12 14:30:22;;;;;;;1.20;1.13;;;18.80;99.90;;;;;;5467752;26;20507;-80
2024/04/12 14:32:51;;;;;;;0.85;0.85;;;18.80;99.90;;;;;;5464751;26;20034;-80
2024/04/12 14:35:22;;;;;;;1.70;1.35;;;18.70;99.90;;;;;;5470954;26;20019;-80
2024/04/12 14:37:50;;;;;;;0.38;0.38;;;18.80;99.90;;;;;;5467859;26;20034;-79